sensor_id;sensor_type;location;lat;lon;timestamp;temperature;humidity
60027;DHT22;45891;53.006;6.512;2023-11-22T00:00:08;4.20;99.90
60027;DHT22;45891;53.006;6.512;2023-11-22T00:02:34;4.10;99.90
60027;DHT22;45891;53.006;6.512;2023-11-22T00:05:00;4.20;99.90
60027;DHT22;45891;53.006;6.512;2023-11-22T00:07:26;4.20;99.90
60027;DHT22;45891;53.006;6.512;2023-11-22T00:09:55;4.20;99.90
60027;DHT22;45891;53.006;6.512;2023-11-22T00:12:21;4.20;99.90
60027;DHT22;45891;53.006;6.512;2023-11-22T00:14:48;4.20;99.90
60027;DHT22;45891;53.006;6.512;2023-11-22T00:17:14;4.30;99.90
60027;DHT22;45891;53.006;6.512;2023-11-22T00:19:43;4.30;99.90
60027;DHT22;45891;53.006;6.512;2023-11-22T00:22:10;4.20;99.90
60027;DHT22;45891;53.006;6.512;2023-11-22T00:24:40;4.30;99.90
60027;DHT22;45891;53.006;6.512;2023-11-22T00:27:07;4.20;99.90
60027;DHT22;45891;53.006;6.512;2023-11-22T00:29:33;4.20;99.90
60027;DHT22;45891;53.006;6.512;2023-11-22T00:31:59;4.10;99.90
60027;DHT22;45891;53.006;6.512;2023-11-22T00:34:25;4.10;99.90
60027;DHT22;45891;53.006;6.512;2023-11-22T00:36:52;4.00;99.90
60027;DHT22;45891;53.006;6.512;2023-11-22T00:39:18;4.00;99.90
60027;DHT22;45891;53.006;6.512;2023-11-22T00:41:44;3.90;99.90
60027;DHT22;45891;53.006;6.512;2023-11-22T00:44:10;3.80;99.90
60027;DHT22;45891;53.006;6.512;2023-11-22T00:46:36;3.80;99.90
60027;DHT22;45891;53.006;6.512;2023-11-22T00:49:05;3.80;99.90
60027;DHT22;45891;53.006;6.512;2023-11-22T00:51:31;3.70;99.90
60027;DHT22;45891;53.006;6.512;2023-11-22T00:53:58;3.70;99.90
60027;DHT22;45891;53.006;6.512;2023-11-22T00:56:24;3.70;99.90
60027;DHT22;45891;53.006;6.512;2023-11-22T00:58:50;3.70;99.90
60027;DHT22;45891;53.006;6.512;2023-11-22T01:01:16;3.60;99.90
60027;DHT22;45891;53.006;6.512;2023-11-22T01:03:43;3.70;99.90
60027;DHT22;45891;53.006;6.512;2023-11-22T01:06:09;3.60;99.90
60027;DHT22;45891;53.006;6.512;2023-11-22T01:08:35;3.60;99.90
60027;DHT22;45891;53.006;6.512;2023-11-22T01:11:02;3.50;99.90
60027;DHT22;45891;53.006;6.512;2023-11-22T01:13:29;3.50;99.90
60027;DHT22;45891;53.006;6.512;2023-11-22T01:15:55;3.40;99.90
60027;DHT22;45891;53.006;6.512;2023-11-22T01:18:21;3.30;99.90
60027;DHT22;45891;53.006;6.512;2023-11-22T01:20:47;3.20;99.90
60027;DHT22;45891;53.006;6.512;2023-11-22T01:23:13;3.20;99.90
60027;DHT22;45891;53.006;6.512;2023-11-22T01:25:39;3.20;99.90
60027;DHT22;45891;53.006;6.512;2023-11-22T01:28:05;3.20;99.90
60027;DHT22;45891;53.006;6.512;2023-11-22T01:30:32;3.00;99.90
60027;DHT22;45891;53.006;6.512;2023-11-22T01:32:59;3.00;99.90
60027;DHT22;45891;53.006;6.512;2023-11-22T01:35:24;2.90;99.90
60027;DHT22;45891;53.006;6.512;2023-11-22T01:37:50;2.80;99.90
60027;DHT22;45891;53.006;6.512;2023-11-22T01:40:17;2.80;99.90
60027;DHT22;45891;53.006;6.512;2023-11-22T01:42:45;2.70;99.90
60027;DHT22;45891;53.006;6.512;2023-11-22T01:45:11;2.60;99.90
60027;DHT22;45891;53.006;6.512;2023-11-22T01:47:37;2.60;99.90
60027;DHT22;45891;53.006;6.512;2023-11-22T01:50:05;2.60;99.90
60027;DHT22;45891;53.006;6.512;2023-11-22T01:52:32;2.40;99.90
60027;DHT22;45891;53.006;6.512;2023-11-22T01:54:58;2.40;99.90
60027;DHT22;45891;53.006;6.512;2023-11-22T01:57:24;2.30;99.90
60027;DHT22;45891;53.006;6.512;2023-11-22T01:59:50;2.30;99.90
60027;DHT22;45891;53.006;6.512;2023-11-22T02:02:16;2.30;99.90
60027;DHT22;45891;53.006;6.512;2023-11-22T02:04:42;2.20;99.90
60027;DHT22;45891;53.006;6.512;2023-11-22T02:07:09;2.20;99.90
60027;DHT22;45891;53.006;6.512;2023-11-22T02:09:35;2.10;99.90
60027;DHT22;45891;53.006;6.512;2023-11-22T02:12:01;2.10;99.90
60027;DHT22;45891;53.006;6.512;2023-11-22T02:14:27;2.10;99.90
60027;DHT22;45891;53.006;6.512;2023-11-22T02:16:53;2.00;99.90
60027;DHT22;45891;53.006;6.512;2023-11-22T02:19:19;1.90;99.90
60027;DHT22;45891;53.006;6.512;2023-11-22T02:21:46;1.90;99.90
60027;DHT22;45891;53.006;6.512;2023-11-22T02:24:13;1.90;99.90
60027;DHT22;45891;53.006;6.512;2023-11-22T02:26:43;1.90;99.90
60027;DHT22;45891;53.006;6.512;2023-11-22T02:29:09;1.80;99.90
60027;DHT22;45891;53.006;6.512;2023-11-22T02:31:35;1.80;99.90
60027;DHT22;45891;53.006;6.512;2023-11-22T02:34:01;1.80;99.90
60027;DHT22;45891;53.006;6.512;2023-11-22T02:36:27;1.70;99.90
60027;DHT22;45891;53.006;6.512;2023-11-22T02:38:53;1.70;99.90
60027;DHT22;45891;53.006;6.512;2023-11-22T02:41:19;1.70;99.90
60027;DHT22;45891;53.006;6.512;2023-11-22T02:43:45;1.70;99.90
60027;DHT22;45891;53.006;6.512;2023-11-22T02:46:12;1.70;99.90
60027;DHT22;45891;53.006;6.512;2023-11-22T02:48:38;1.70;99.90
60027;DHT22;45891;53.006;6.512;2023-11-22T02:51:03;1.60;99.90
60027;DHT22;45891;53.006;6.512;2023-11-22T02:53:32;1.60;99.90
60027;DHT22;45891;53.006;6.512;2023-11-22T02:56:01;1.60;99.90
60027;DHT22;45891;53.006;6.512;2023-11-22T02:58:28;1.60;99.90
60027;DHT22;45891;53.006;6.512;2023-11-22T03:00:54;1.60;99.90
60027;DHT22;45891;53.006;6.512;2023-11-22T03:03:23;1.60;99.90
60027;DHT22;45891;53.006;6.512;2023-11-22T03:05:49;1.70;99.90
60027;DHT22;45891;53.006;6.512;2023-11-22T03:08:16;1.70;99.90
60027;DHT22;45891;53.006;6.512;2023-11-22T03:10:42;1.60;99.90
60027;DHT22;45891;53.006;6.512;2023-11-22T03:13:08;1.50;99.90
60027;DHT22;45891;53.006;6.512;2023-11-22T03:15:36;1.50;99.90
60027;DHT22;45891;53.006;6.512;2023-11-22T03:18:03;1.40;99.90
60027;DHT22;45891;53.006;6.512;2023-11-22T03:20:30;1.40;99.90
60027;DHT22;45891;53.006;6.512;2023-11-22T03:22:58;1.40;99.90
60027;DHT22;45891;53.006;6.512;2023-11-22T03:25:24;1.30;99.90
60027;DHT22;45891;53.006;6.512;2023-11-22T03:27:50;1.30;99.90
60027;DHT22;45891;53.006;6.512;2023-11-22T03:30:16;1.30;99.90
60027;DHT22;45891;53.006;6.512;2023-11-22T03:32:42;1.30;99.90
60027;DHT22;45891;53.006;6.512;2023-11-22T03:35:09;1.30;99.90
60027;DHT22;45891;53.006;6.512;2023-11-22T03:37:36;1.30;99.90
60027;DHT22;45891;53.006;6.512;2023-11-22T03:40:02;1.30;99.90
60027;DHT22;45891;53.006;6.512;2023-11-22T03:42:28;1.30;99.90
60027;DHT22;45891;53.006;6.512;2023-11-22T03:44:54;1.30;99.90
60027;DHT22;45891;53.006;6.512;2023-11-22T03:47:20;1.30;99.90
60027;DHT22;45891;53.006;6.512;2023-11-22T03:49:46;1.30;99.90
60027;DHT22;45891;53.006;6.512;2023-11-22T03:52:12;1.30;99.90
60027;DHT22;45891;53.006;6.512;2023-11-22T03:54:39;1.30;99.90
60027;DHT22;45891;53.006;6.512;2023-11-22T03:57:05;1.20;99.90
60027;DHT22;45891;53.006;6.512;2023-11-22T03:59:31;1.20;99.90
60027;DHT22;45891;53.006;6.512;2023-11-22T04:01:57;1.20;99.90
60027;DHT22;45891;53.006;6.512;2023-11-22T04:04:23;1.20;99.90
60027;DHT22;45891;53.006;6.512;2023-11-22T04:06:49;1.10;99.90
60027;DHT22;45891;53.006;6.512;2023-11-22T04:09:16;1.10;99.90
60027;DHT22;45891;53.006;6.512;2023-11-22T04:11:46;1.10;99.90
60027;DHT22;45891;53.006;6.512;2023-11-22T04:14:13;1.00;99.90
60027;DHT22;45891;53.006;6.512;2023-11-22T04:16:39;1.00;99.90
60027;DHT22;45891;53.006;6.512;2023-11-22T04:19:04;0.90;99.90
60027;DHT22;45891;53.006;6.512;2023-11-22T04:21:30;0.90;99.90
60027;DHT22;45891;53.006;6.512;2023-11-22T04:23:56;0.90;99.90
60027;DHT22;45891;53.006;6.512;2023-11-22T04:26:23;0.80;99.90
60027;DHT22;45891;53.006;6.512;2023-11-22T04:28:50;0.80;99.90
60027;DHT22;45891;53.006;6.512;2023-11-22T04:31:16;0.80;99.90
60027;DHT22;45891;53.006;6.512;2023-11-22T04:33:42;0.80;99.90
60027;DHT22;45891;53.006;6.512;2023-11-22T04:36:08;0.70;99.90
60027;DHT22;45891;53.006;6.512;2023-11-22T04:38:33;0.70;99.90
60027;DHT22;45891;53.006;6.512;2023-11-22T04:41:00;0.70;99.90
60027;DHT22;45891;53.006;6.512;2023-11-22T04:43:25;0.70;99.90
60027;DHT22;45891;53.006;6.512;2023-11-22T04:45:52;0.70;99.90
60027;DHT22;45891;53.006;6.512;2023-11-22T04:48:18;0.70;99.90
60027;DHT22;45891;53.006;6.512;2023-11-22T04:50:44;0.80;99.90
60027;DHT22;45891;53.006;6.512;2023-11-22T04:53:10;0.80;99.90
60027;DHT22;45891;53.006;6.512;2023-11-22T04:55:36;0.80;99.90
60027;DHT22;45891;53.006;6.512;2023-11-22T04:58:02;0.80;99.90
60027;DHT22;45891;53.006;6.512;2023-11-22T05:00:28;0.80;99.90
60027;DHT22;45891;53.006;6.512;2023-11-22T05:02:54;0.80;99.90
60027;DHT22;45891;53.006;6.512;2023-11-22T05:05:20;0.80;99.90
60027;DHT22;45891;53.006;6.512;2023-11-22T05:07:46;0.70;99.90
60027;DHT22;45891;53.006;6.512;2023-11-22T05:10:13;0.80;99.90
60027;DHT22;45891;53.006;6.512;2023-11-22T05:12:39;0.70;99.90
60027;DHT22;45891;53.006;6.512;2023-11-22T05:15:06;0.80;99.90
60027;DHT22;45891;53.006;6.512;2023-11-22T05:17:32;0.70;99.90
60027;DHT22;45891;53.006;6.512;2023-11-22T05:19:58;0.70;99.90
60027;DHT22;45891;53.006;6.512;2023-11-22T05:22:24;0.70;99.90
60027;DHT22;45891;53.006;6.512;2023-11-22T05:24:50;0.70;99.90
60027;DHT22;45891;53.006;6.512;2023-11-22T05:27:16;0.80;99.90
60027;DHT22;45891;53.006;6.512;2023-11-22T05:29:42;0.80;99.90
60027;DHT22;45891;53.006;6.512;2023-11-22T05:32:09;0.80;99.90
60027;DHT22;45891;53.006;6.512;2023-11-22T05:34:35;0.90;99.90
60027;DHT22;45891;53.006;6.512;2023-11-22T05:37:01;0.90;99.90
60027;DHT22;45891;53.006;6.512;2023-11-22T05:39:26;0.90;99.90
60027;DHT22;45891;53.006;6.512;2023-11-22T05:41:53;1.00;99.90
60027;DHT22;45891;53.006;6.512;2023-11-22T05:44:19;1.00;99.90
60027;DHT22;45891;53.006;6.512;2023-11-22T05:46:45;1.00;99.90
60027;DHT22;45891;53.006;6.512;2023-11-22T05:49:11;1.00;99.90
60027;DHT22;45891;53.006;6.512;2023-11-22T05:51:37;1.00;99.90
60027;DHT22;45891;53.006;6.512;2023-11-22T05:54:03;1.00;99.90
60027;DHT22;45891;53.006;6.512;2023-11-22T05:56:29;1.00;99.90
60027;DHT22;45891;53.006;6.512;2023-11-22T05:58:55;1.00;99.90
60027;DHT22;45891;53.006;6.512;2023-11-22T06:01:22;1.00;99.90
60027;DHT22;45891;53.006;6.512;2023-11-22T06:03:48;1.00;99.90
60027;DHT22;45891;53.006;6.512;2023-11-22T06:06:14;1.00;99.90
60027;DHT22;45891;53.006;6.512;2023-11-22T06:08:40;1.10;99.90
60027;DHT22;45891;53.006;6.512;2023-11-22T06:11:06;1.10;99.90
60027;DHT22;45891;53.006;6.512;2023-11-22T06:13:33;1.10;99.90
60027;DHT22;45891;53.006;6.512;2023-11-22T06:15:59;1.10;99.90
60027;DHT22;45891;53.006;6.512;2023-11-22T06:18:25;1.10;99.90
60027;DHT22;45891;53.006;6.512;2023-11-22T06:20:58;1.10;99.90
60027;DHT22;45891;53.006;6.512;2023-11-22T06:23:24;1.10;99.90
60027;DHT22;45891;53.006;6.512;2023-11-22T06:25:50;1.20;99.90
60027;DHT22;45891;53.006;6.512;2023-11-22T06:28:16;1.10;99.90
60027;DHT22;45891;53.006;6.512;2023-11-22T06:30:42;1.10;99.90
60027;DHT22;45891;53.006;6.512;2023-11-22T06:33:07;1.10;99.90
60027;DHT22;45891;53.006;6.512;2023-11-22T06:35:33;1.10;99.90
60027;DHT22;45891;53.006;6.512;2023-11-22T06:37:59;1.10;99.90
60027;DHT22;45891;53.006;6.512;2023-11-22T06:40:25;1.10;99.90
60027;DHT22;45891;53.006;6.512;2023-11-22T06:42:51;1.10;99.90
60027;DHT22;45891;53.006;6.512;2023-11-22T06:45:17;1.00;99.90
60027;DHT22;45891;53.006;6.512;2023-11-22T06:47:43;1.00;99.90
60027;DHT22;45891;53.006;6.512;2023-11-22T06:50:10;1.00;99.90
60027;DHT22;45891;53.006;6.512;2023-11-22T06:52:39;1.00;99.90
60027;DHT22;45891;53.006;6.512;2023-11-22T06:55:07;1.00;99.90
60027;DHT22;45891;53.006;6.512;2023-11-22T06:57:33;1.00;99.90
60027;DHT22;45891;53.006;6.512;2023-11-22T06:59:59;0.90;99.90
60027;DHT22;45891;53.006;6.512;2023-11-22T07:02:26;1.00;99.90
60027;DHT22;45891;53.006;6.512;2023-11-22T07:04:52;1.00;99.90
60027;DHT22;45891;53.006;6.512;2023-11-22T07:07:18;1.00;99.90
60027;DHT22;45891;53.006;6.512;2023-11-22T07:09:45;1.10;99.90
60027;DHT22;45891;53.006;6.512;2023-11-22T07:12:12;1.10;99.90
60027;DHT22;45891;53.006;6.512;2023-11-22T07:14:38;1.10;99.90
60027;DHT22;45891;53.006;6.512;2023-11-22T07:17:03;1.20;99.90
60027;DHT22;45891;53.006;6.512;2023-11-22T07:19:32;1.20;99.90
60027;DHT22;45891;53.006;6.512;2023-11-22T07:22:00;1.30;99.90
60027;DHT22;45891;53.006;6.512;2023-11-22T07:24:30;1.30;99.90
60027;DHT22;45891;53.006;6.512;2023-11-22T07:26:59;1.40;99.90
60027;DHT22;45891;53.006;6.512;2023-11-22T07:29:26;1.40;99.90
60027;DHT22;45891;53.006;6.512;2023-11-22T07:31:54;1.50;99.90
60027;DHT22;45891;53.006;6.512;2023-11-22T07:34:22;1.50;99.90
60027;DHT22;45891;53.006;6.512;2023-11-22T07:36:49;1.50;99.90
60027;DHT22;45891;53.006;6.512;2023-11-22T07:39:16;1.50;99.90
60027;DHT22;45891;53.006;6.512;2023-11-22T07:41:45;1.60;99.90
60027;DHT22;45891;53.006;6.512;2023-11-22T07:44:11;1.60;99.90
60027;DHT22;45891;53.006;6.512;2023-11-22T07:46:37;1.70;99.90
60027;DHT22;45891;53.006;6.512;2023-11-22T07:49:03;1.70;99.90
60027;DHT22;45891;53.006;6.512;2023-11-22T07:51:29;1.80;99.90
60027;DHT22;45891;53.006;6.512;2023-11-22T07:53:56;1.80;99.90
60027;DHT22;45891;53.006;6.512;2023-11-22T07:56:21;1.80;99.90
60027;DHT22;45891;53.006;6.512;2023-11-22T07:58:47;1.90;99.90
60027;DHT22;45891;53.006;6.512;2023-11-22T08:01:13;1.90;99.90
60027;DHT22;45891;53.006;6.512;2023-11-22T08:03:39;2.00;99.90
60027;DHT22;45891;53.006;6.512;2023-11-22T08:06:11;2.00;99.90
60027;DHT22;45891;53.006;6.512;2023-11-22T08:08:37;2.00;99.90
60027;DHT22;45891;53.006;6.512;2023-11-22T08:11:05;2.10;99.90
60027;DHT22;45891;53.006;6.512;2023-11-22T08:13:40;2.10;99.90
60027;DHT22;45891;53.006;6.512;2023-11-22T08:16:09;2.20;99.90
60027;DHT22;45891;53.006;6.512;2023-11-22T08:18:34;2.20;99.90
60027;DHT22;45891;53.006;6.512;2023-11-22T08:21:00;2.20;99.90
60027;DHT22;45891;53.006;6.512;2023-11-22T08:23:26;2.20;99.90
60027;DHT22;45891;53.006;6.512;2023-11-22T08:25:52;2.30;99.90
60027;DHT22;45891;53.006;6.512;2023-11-22T08:28:18;2.30;99.90
60027;DHT22;45891;53.006;6.512;2023-11-22T08:30:44;2.30;99.90
60027;DHT22;45891;53.006;6.512;2023-11-22T08:33:10;2.40;99.90
60027;DHT22;45891;53.006;6.512;2023-11-22T08:35:36;2.40;99.90
60027;DHT22;45891;53.006;6.512;2023-11-22T08:38:02;2.40;99.90
60027;DHT22;45891;53.006;6.512;2023-11-22T08:40:28;2.50;99.90
60027;DHT22;45891;53.006;6.512;2023-11-22T08:42:54;2.50;99.90
60027;DHT22;45891;53.006;6.512;2023-11-22T08:45:20;2.50;99.90
60027;DHT22;45891;53.006;6.512;2023-11-22T08:47:46;2.50;99.90
60027;DHT22;45891;53.006;6.512;2023-11-22T08:50:12;2.60;99.90
60027;DHT22;45891;53.006;6.512;2023-11-22T08:52:38;2.60;99.90
60027;DHT22;45891;53.006;6.512;2023-11-22T08:55:08;2.60;99.90
60027;DHT22;45891;53.006;6.512;2023-11-22T08:57:37;2.70;99.90
60027;DHT22;45891;53.006;6.512;2023-11-22T09:00:04;2.70;99.90
60027;DHT22;45891;53.006;6.512;2023-11-22T09:02:35;2.70;99.90
60027;DHT22;45891;53.006;6.512;2023-11-22T09:05:02;2.80;99.90
60027;DHT22;45891;53.006;6.512;2023-11-22T09:07:32;2.80;99.90
60027;DHT22;45891;53.006;6.512;2023-11-22T09:09:59;2.80;99.90
60027;DHT22;45891;53.006;6.512;2023-11-22T09:12:25;2.90;99.90
60027;DHT22;45891;53.006;6.512;2023-11-22T09:14:52;2.90;99.90
60027;DHT22;45891;53.006;6.512;2023-11-22T09:17:18;2.80;99.90
60027;DHT22;45891;53.006;6.512;2023-11-22T09:19:46;2.90;99.90
60027;DHT22;45891;53.006;6.512;2023-11-22T09:22:12;2.80;99.90
60027;DHT22;45891;53.006;6.512;2023-11-22T09:24:38;2.90;99.90
60027;DHT22;45891;53.006;6.512;2023-11-22T09:27:05;2.90;99.90
60027;DHT22;45891;53.006;6.512;2023-11-22T09:29:32;2.90;99.90
60027;DHT22;45891;53.006;6.512;2023-11-22T09:32:00;2.90;99.90
60027;DHT22;45891;53.006;6.512;2023-11-22T09:34:27;2.90;99.90
60027;DHT22;45891;53.006;6.512;2023-11-22T09:36:53;3.00;99.90
60027;DHT22;45891;53.006;6.512;2023-11-22T09:39:19;3.00;99.90
60027;DHT22;45891;53.006;6.512;2023-11-22T09:41:47;3.10;99.90
60027;DHT22;45891;53.006;6.512;2023-11-22T09:44:14;3.10;99.90
60027;DHT22;45891;53.006;6.512;2023-11-22T09:46:42;3.10;99.90
60027;DHT22;45891;53.006;6.512;2023-11-22T09:49:08;3.20;99.90
60027;DHT22;45891;53.006;6.512;2023-11-22T09:51:37;3.30;99.90
60027;DHT22;45891;53.006;6.512;2023-11-22T09:54:05;3.30;99.90
60027;DHT22;45891;53.006;6.512;2023-11-22T09:56:33;3.30;99.90
60027;DHT22;45891;53.006;6.512;2023-11-22T09:58:59;3.40;99.90
60027;DHT22;45891;53.006;6.512;2023-11-22T10:01:26;3.50;99.90
60027;DHT22;45891;53.006;6.512;2023-11-22T10:03:57;3.60;99.90
60027;DHT22;45891;53.006;6.512;2023-11-22T10:06:23;3.60;99.90
60027;DHT22;45891;53.006;6.512;2023-11-22T10:08:49;3.70;99.90
60027;DHT22;45891;53.006;6.512;2023-11-22T10:11:15;3.70;99.90
60027;DHT22;45891;53.006;6.512;2023-11-22T10:13:43;3.70;99.90
60027;DHT22;45891;53.006;6.512;2023-11-22T10:16:12;3.90;99.90
60027;DHT22;45891;53.006;6.512;2023-11-22T10:18:42;3.90;99.90
60027;DHT22;45891;53.006;6.512;2023-11-22T10:21:22;4.00;99.90
60027;DHT22;45891;53.006;6.512;2023-11-22T10:23:48;4.00;99.90
60027;DHT22;45891;53.006;6.512;2023-11-22T10:26:14;4.00;99.90
60027;DHT22;45891;53.006;6.512;2023-11-22T10:28:41;4.10;99.90
60027;DHT22;45891;53.006;6.512;2023-11-22T10:31:09;4.20;99.90
60027;DHT22;45891;53.006;6.512;2023-11-22T10:33:42;4.20;99.90
60027;DHT22;45891;53.006;6.512;2023-11-22T10:36:08;4.20;99.90
60027;DHT22;45891;53.006;6.512;2023-11-22T10:38:34;4.40;99.90
60027;DHT22;45891;53.006;6.512;2023-11-22T10:41:04;4.50;99.90
60027;DHT22;45891;53.006;6.512;2023-11-22T10:43:30;4.60;99.90
60027;DHT22;45891;53.006;6.512;2023-11-22T10:46:03;4.70;99.90
60027;DHT22;45891;53.006;6.512;2023-11-22T10:48:31;4.80;99.90
60027;DHT22;45891;53.006;6.512;2023-11-22T10:51:01;4.90;99.90
60027;DHT22;45891;53.006;6.512;2023-11-22T10:53:33;5.00;99.90
60027;DHT22;45891;53.006;6.512;2023-11-22T10:56:12;5.00;99.90
60027;DHT22;45891;53.006;6.512;2023-11-22T10:58:49;5.10;99.90
60027;DHT22;45891;53.006;6.512;2023-11-22T11:01:16;5.00;99.90
60027;DHT22;45891;53.006;6.512;2023-11-22T11:03:45;5.00;99.90
60027;DHT22;45891;53.006;6.512;2023-11-22T11:06:14;4.90;99.90
60027;DHT22;45891;53.006;6.512;2023-11-22T11:08:41;4.90;99.90
60027;DHT22;45891;53.006;6.512;2023-11-22T11:11:08;4.90;99.90
60027;DHT22;45891;53.006;6.512;2023-11-22T11:13:34;4.90;99.90
60027;DHT22;45891;53.006;6.512;2023-11-22T11:16:00;5.00;99.90
60027;DHT22;45891;53.006;6.512;2023-11-22T11:18:27;5.10;99.90
60027;DHT22;45891;53.006;6.512;2023-11-22T11:20:56;5.30;99.90
60027;DHT22;45891;53.006;6.512;2023-11-22T11:23:23;5.40;99.90
60027;DHT22;45891;53.006;6.512;2023-11-22T11:25:51;5.50;99.90
60027;DHT22;45891;53.006;6.512;2023-11-22T11:28:18;5.50;99.90
60027;DHT22;45891;53.006;6.512;2023-11-22T11:30:44;5.60;99.90
60027;DHT22;45891;53.006;6.512;2023-11-22T11:33:11;5.60;99.90
60027;DHT22;45891;53.006;6.512;2023-11-22T11:35:38;5.60;99.90
60027;DHT22;45891;53.006;6.512;2023-11-22T11:38:05;5.70;99.90
60027;DHT22;45891;53.006;6.512;2023-11-22T11:40:34;5.70;99.90
60027;DHT22;45891;53.006;6.512;2023-11-22T11:43:00;5.80;99.90
60027;DHT22;45891;53.006;6.512;2023-11-22T11:45:27;5.90;99.90
60027;DHT22;45891;53.006;6.512;2023-11-22T11:47:53;5.90;99.90
60027;DHT22;45891;53.006;6.512;2023-11-22T11:50:20;5.90;99.90
60027;DHT22;45891;53.006;6.512;2023-11-22T11:52:46;5.90;99.90
60027;DHT22;45891;53.006;6.512;2023-11-22T11:55:12;5.80;99.90
60027;DHT22;45891;53.006;6.512;2023-11-22T11:57:38;5.90;99.90
60027;DHT22;45891;53.006;6.512;2023-11-22T12:00:04;5.90;99.90
60027;DHT22;45891;53.006;6.512;2023-11-22T12:02:31;6.00;99.90
60027;DHT22;45891;53.006;6.512;2023-11-22T12:04:57;6.00;99.90
60027;DHT22;45891;53.006;6.512;2023-11-22T12:07:23;6.00;99.90
60027;DHT22;45891;53.006;6.512;2023-11-22T12:09:49;6.10;99.90
60027;DHT22;45891;53.006;6.512;2023-11-22T12:12:14;6.10;99.90
60027;DHT22;45891;53.006;6.512;2023-11-22T12:14:40;6.10;99.90
60027;DHT22;45891;53.006;6.512;2023-11-22T12:17:06;6.10;99.90
60027;DHT22;45891;53.006;6.512;2023-11-22T12:19:33;5.80;99.90
60027;DHT22;45891;53.006;6.512;2023-11-22T12:22:00;5.80;99.90
60027;DHT22;45891;53.006;6.512;2023-11-22T12:24:26;5.70;99.90
60027;DHT22;45891;53.006;6.512;2023-11-22T12:26:52;5.60;99.90
60027;DHT22;45891;53.006;6.512;2023-11-22T12:29:20;5.60;99.90
60027;DHT22;45891;53.006;6.512;2023-11-22T12:31:49;5.50;99.90
60027;DHT22;45891;53.006;6.512;2023-11-22T12:34:22;5.50;99.90
60027;DHT22;45891;53.006;6.512;2023-11-22T12:36:50;5.50;99.90
60027;DHT22;45891;53.006;6.512;2023-11-22T12:39:16;5.50;99.90
60027;DHT22;45891;53.006;6.512;2023-11-22T12:41:49;5.50;99.90
60027;DHT22;45891;53.006;6.512;2023-11-22T12:44:16;5.40;99.90
60027;DHT22;45891;53.006;6.512;2023-11-22T12:49:12;5.40;99.90
60027;DHT22;45891;53.006;6.512;2023-11-22T12:51:38;5.50;99.90
60027;DHT22;45891;53.006;6.512;2023-11-22T12:54:03;5.40;99.90
60027;DHT22;45891;53.006;6.512;2023-11-22T12:56:29;5.40;99.90
60027;DHT22;45891;53.006;6.512;2023-11-22T12:58:55;5.40;99.90
60027;DHT22;45891;53.006;6.512;2023-11-22T13:01:21;5.40;99.90
60027;DHT22;45891;53.006;6.512;2023-11-22T13:03:47;5.40;99.90
60027;DHT22;45891;53.006;6.512;2023-11-22T13:06:15;5.40;99.90
60027;DHT22;45891;53.006;6.512;2023-11-22T13:08:43;5.40;99.90
60027;DHT22;45891;53.006;6.512;2023-11-22T13:11:09;5.40;99.90
60027;DHT22;45891;53.006;6.512;2023-11-22T13:13:35;5.40;99.90
60027;DHT22;45891;53.006;6.512;2023-11-22T13:16:01;5.40;99.90
60027;DHT22;45891;53.006;6.512;2023-11-22T13:18:27;5.40;99.90
60027;DHT22;45891;53.006;6.512;2023-11-22T13:20:53;5.40;99.90
60027;DHT22;45891;53.006;6.512;2023-11-22T13:23:19;5.40;99.90
60027;DHT22;45891;53.006;6.512;2023-11-22T13:25:44;5.40;99.90
60027;DHT22;45891;53.006;6.512;2023-11-22T13:28:11;5.40;99.90
60027;DHT22;45891;53.006;6.512;2023-11-22T13:30:37;5.40;99.90
60027;DHT22;45891;53.006;6.512;2023-11-22T13:33:03;5.40;99.90
60027;DHT22;45891;53.006;6.512;2023-11-22T13:35:29;5.40;99.90
60027;DHT22;45891;53.006;6.512;2023-11-22T13:38:03;5.40;99.90
60027;DHT22;45891;53.006;6.512;2023-11-22T13:40:31;5.30;99.90
60027;DHT22;45891;53.006;6.512;2023-11-22T13:42:57;5.30;99.90
60027;DHT22;45891;53.006;6.512;2023-11-22T13:45:23;5.30;99.90
60027;DHT22;45891;53.006;6.512;2023-11-22T13:47:50;5.30;99.90
60027;DHT22;45891;53.006;6.512;2023-11-22T13:50:18;5.20;99.90
60027;DHT22;45891;53.006;6.512;2023-11-22T13:52:45;5.20;99.90
60027;DHT22;45891;53.006;6.512;2023-11-22T13:55:11;5.20;99.90
60027;DHT22;45891;53.006;6.512;2023-11-22T13:57:38;5.10;99.90
60027;DHT22;45891;53.006;6.512;2023-11-22T14:00:05;5.10;99.90
60027;DHT22;45891;53.006;6.512;2023-11-22T14:02:47;5.10;99.90
60027;DHT22;45891;53.006;6.512;2023-11-22T14:05:13;5.10;99.90
60027;DHT22;45891;53.006;6.512;2023-11-22T14:07:41;5.10;99.90
60027;DHT22;45891;53.006;6.512;2023-11-22T14:10:07;5.10;99.90
60027;DHT22;45891;53.006;6.512;2023-11-22T14:12:34;5.10;99.90
60027;DHT22;45891;53.006;6.512;2023-11-22T14:15:00;5.00;99.90
60027;DHT22;45891;53.006;6.512;2023-11-22T14:17:27;5.00;99.90
60027;DHT22;45891;53.006;6.512;2023-11-22T14:19:53;5.00;99.90
60027;DHT22;45891;53.006;6.512;2023-11-22T14:22:20;5.00;99.90
60027;DHT22;45891;53.006;6.512;2023-11-22T14:24:48;5.00;99.90
60027;DHT22;45891;53.006;6.512;2023-11-22T14:27:14;5.00;99.90
60027;DHT22;45891;53.006;6.512;2023-11-22T14:29:40;5.00;99.90
60027;DHT22;45891;53.006;6.512;2023-11-22T14:32:08;4.90;99.90
60027;DHT22;45891;53.006;6.512;2023-11-22T14:34:33;4.90;99.90
60027;DHT22;45891;53.006;6.512;2023-11-22T14:36:59;4.90;99.90
60027;DHT22;45891;53.006;6.512;2023-11-22T14:39:25;4.90;99.90
60027;DHT22;45891;53.006;6.512;2023-11-22T14:41:52;4.90;99.90
60027;DHT22;45891;53.006;6.512;2023-11-22T14:44:19;4.90;99.90
60027;DHT22;45891;53.006;6.512;2023-11-22T14:46:47;4.90;99.90
60027;DHT22;45891;53.006;6.512;2023-11-22T14:49:15;4.90;99.90
60027;DHT22;45891;53.006;6.512;2023-11-22T14:51:40;4.80;99.90
60027;DHT22;45891;53.006;6.512;2023-11-22T14:54:06;4.90;99.90
60027;DHT22;45891;53.006;6.512;2023-11-22T14:56:32;4.80;99.90
60027;DHT22;45891;53.006;6.512;2023-11-22T14:58:59;4.80;99.90
60027;DHT22;45891;53.006;6.512;2023-11-22T15:01:25;4.80;99.90
60027;DHT22;45891;53.006;6.512;2023-11-22T15:03:52;4.90;99.90
60027;DHT22;45891;53.006;6.512;2023-11-22T15:06:19;4.90;99.90
60027;DHT22;45891;53.006;6.512;2023-11-22T15:08:46;4.90;99.90
60027;DHT22;45891;53.006;6.512;2023-11-22T15:11:11;4.80;99.90
60027;DHT22;45891;53.006;6.512;2023-11-22T15:13:38;4.90;99.90
60027;DHT22;45891;53.006;6.512;2023-11-22T15:16:04;4.90;99.90
60027;DHT22;45891;53.006;6.512;2023-11-22T15:18:31;4.80;99.90
60027;DHT22;45891;53.006;6.512;2023-11-22T15:20:56;4.90;99.90
60027;DHT22;45891;53.006;6.512;2023-11-22T15:23:23;4.90;99.90
60027;DHT22;45891;53.006;6.512;2023-11-22T15:25:49;4.90;99.90
60027;DHT22;45891;53.006;6.512;2023-11-22T15:28:15;4.90;99.90
60027;DHT22;45891;53.006;6.512;2023-11-22T15:30:50;4.90;99.90
60027;DHT22;45891;53.006;6.512;2023-11-22T15:33:22;4.90;99.90
60027;DHT22;45891;53.006;6.512;2023-11-22T15:35:48;4.90;99.90
60027;DHT22;45891;53.006;6.512;2023-11-22T15:38:14;4.90;99.90
60027;DHT22;45891;53.006;6.512;2023-11-22T15:40:39;4.90;99.90
60027;DHT22;45891;53.006;6.512;2023-11-22T15:43:05;4.90;99.90